sensor_id;sensor_type;location;lat;lon;timestamp;pressure;altitude;pressure_sealevel;temperature;humidity
10720;BME280;5411;58.386;15.560;2023-09-19T00:00:47;99012.63;;;18.50;100.00
10720;BME280;5411;58.386;15.560;2023-09-19T00:03:16;99023.66;;;18.54;100.00
10720;BME280;5411;58.386;15.560;2023-09-19T00:05:44;99009.03;;;18.55;100.00
10720;BME280;5411;58.386;15.560;2023-09-19T00:08:14;99009.03;;;18.55;100.00
10720;BME280;5411;58.386;15.560;2023-09-19T00:10:43;99002.53;;;18.56;100.00
10720;BME280;5411;58.386;15.560;2023-09-19T00:13:13;99003.06;;;18.58;100.00
10720;BME280;5411;58.386;15.560;2023-09-19T00:15:44;98995.19;;;18.57;100.00
10720;BME280;5411;58.386;15.560;2023-09-19T00:18:17;98996.81;;;18.58;100.00
10720;BME280;5411;58.386;15.560;2023-09-19T00:20:47;98991.69;;;18.56;100.00
10720;BME280;5411;58.386;15.560;2023-09-19T00:23:19;98979.22;;;18.55;100.00
10720;BME280;5411;58.386;15.560;2023-09-19T00:25:47;98988.16;;;18.56;100.00
10720;BME280;5411;58.386;15.560;2023-09-19T00:28:18;98977.03;;;18.57;100.00
10720;BME280;5411;58.386;15.560;2023-09-19T00:30:48;98967.31;;;18.56;100.00
10720;BME280;5411;58.386;15.560;2023-09-19T00:33:18;98961.88;;;18.56;100.00
10720;BME280;5411;58.386;15.560;2023-09-19T00:35:47;98950.22;;;18.56;100.00
10720;BME280;5411;58.386;15.560;2023-09-19T00:38:15;98951.03;;;18.56;100.00
10720;BME280;5411;58.386;15.560;2023-09-19T00:40:44;98954.56;;;18.57;100.00
10720;BME280;5411;58.386;15.560;2023-09-19T00:43:14;98948.34;;;18.56;100.00
10720;BME280;5411;58.386;15.560;2023-09-19T00:45:46;98929.66;;;18.55;100.00
10720;BME280;5411;58.386;15.560;2023-09-19T00:48:15;98921.78;;;18.58;100.00
10720;BME280;5411;58.386;15.560;2023-09-19T00:50:48;98911.75;;;18.59;100.00
10720;BME280;5411;58.386;15.560;2023-09-19T00:53:20;98920.97;;;18.58;100.00
10720;BME280;5411;58.386;15.560;2023-09-19T00:55:50;98925.84;;;18.61;100.00
10720;BME280;5411;58.386;15.560;2023-09-19T00:58:19;98916.91;;;18.60;100.00
10720;BME280;5411;58.386;15.560;2023-09-19T01:00:52;98912.28;;;18.61;100.00
10720;BME280;5411;58.386;15.560;2023-09-19T01:03:22;98910.09;;;18.63;100.00
10720;BME280;5411;58.386;15.560;2023-09-19T01:05:51;98911.19;;;18.62;100.00
10720;BME280;5411;58.386;15.560;2023-09-19T01:08:21;98912.50;;;18.64;100.00
10720;BME280;5411;58.386;15.560;2023-09-19T01:10:52;98914.09;;;18.65;100.00
10720;BME280;5411;58.386;15.560;2023-09-19T01:13:29;98909.50;;;18.66;100.00
10720;BME280;5411;58.386;15.560;2023-09-19T01:16:05;98916.53;;;18.67;100.00
10720;BME280;5411;58.386;15.560;2023-09-19T01:18:46;98909.50;;;18.66;100.00
10720;BME280;5411;58.386;15.560;2023-09-19T01:21:22;98911.09;;;18.67;100.00
10720;BME280;5411;58.386;15.560;2023-09-19T01:24:10;98910.00;;;18.68;100.00
10720;BME280;5411;58.386;15.560;2023-09-19T01:27:01;98895.13;;;18.65;100.00
10720;BME280;5411;58.386;15.560;2023-09-19T01:29:37;98894.84;;;18.67;100.00
10720;BME280;5411;58.386;15.560;2023-09-19T01:32:11;98887.53;;;18.67;100.00
10720;BME280;5411;58.386;15.560;2023-09-19T01:34:46;98876.97;;;18.66;100.00
10720;BME280;5411;58.386;15.560;2023-09-19T01:37:18;98873.47;;;18.65;100.00
10720;BME280;5411;58.386;15.560;2023-09-19T01:39:50;98867.22;;;18.65;100.00
10720;BME280;5411;58.386;15.560;2023-09-19T01:42:31;98849.41;;;18.64;100.00
10720;BME280;5411;58.386;15.560;2023-09-19T01:45:07;98846.16;;;18.62;100.00
10720;BME280;5411;58.386;15.560;2023-09-19T01:47:45;98844.84;;;18.59;100.00
10720;BME280;5411;58.386;15.560;2023-09-19T01:50:22;98845.94;;;18.58;100.00
10720;BME280;5411;58.386;15.560;2023-09-19T01:52:59;98838.34;;;18.55;100.00
10720;BME280;5411;58.386;15.560;2023-09-19T01:55:36;98841.88;;;18.56;100.00
10720;BME280;5411;58.386;15.560;2023-09-19T01:58:08;98842.69;;;18.56;100.00
10720;BME280;5411;58.386;15.560;2023-09-19T02:00:46;98835.09;;;18.58;100.00
10720;BME280;5411;58.386;15.560;2023-09-19T02:03:20;98827.78;;;18.59;100.00
10720;BME280;5411;58.386;15.560;2023-09-19T02:05:50;98810.97;;;18.57;100.00
10720;BME280;5411;58.386;15.560;2023-09-19T02:08:22;98811.78;;;18.57;100.00
10720;BME280;5411;58.386;15.560;2023-09-19T02:10:53;98829.38;;;18.60;100.00
10720;BME280;5411;58.386;15.560;2023-09-19T02:13:22;98819.38;;;18.60;100.00
10720;BME280;5411;58.386;15.560;2023-09-19T02:15:54;98813.66;;;18.62;100.00
10720;BME280;5411;58.386;15.560;2023-09-19T02:18:32;98815.56;;;18.61;100.00
10720;BME280;5411;58.386;15.560;2023-09-19T02:21:03;98803.91;;;18.61;100.00
10720;BME280;5411;58.386;15.560;2023-09-19T02:23:35;98799.31;;;18.61;100.00
10720;BME280;5411;58.386;15.560;2023-09-19T02:26:04;98807.13;;;18.63;100.00
10720;BME280;5411;58.386;15.560;2023-09-19T02:28:34;98799.00;;;18.63;100.00
10720;BME280;5411;58.386;15.560;2023-09-19T02:31:03;98804.44;;;18.63;100.00
10720;BME280;5411;58.386;15.560;2023-09-19T02:33:34;98791.97;;;18.62;100.00
10720;BME280;5411;58.386;15.560;2023-09-19T02:36:04;98790.06;;;18.62;100.00
10720;BME280;5411;58.386;15.560;2023-09-19T02:38:33;98787.66;;;18.61;100.00
10720;BME280;5411;58.386;15.560;2023-09-19T02:41:05;98783.03;;;18.61;100.00
10720;BME280;5411;58.386;15.560;2023-09-19T02:43:33;98780.03;;;18.63;100.00
10720;BME280;5411;58.386;15.560;2023-09-19T02:46:02;98771.59;;;18.64;100.00
10720;BME280;5411;58.386;15.560;2023-09-19T02:48:31;98761.88;;;18.63;100.00
10720;BME280;5411;58.386;15.560;2023-09-19T02:51:02;98761.56;;;18.65;100.00
10720;BME280;5411;58.386;15.560;2023-09-19T02:53:32;98755.66;;;18.63;100.00
10720;BME280;5411;58.386;15.560;2023-09-19T02:56:00;98746.72;;;18.62;100.00
10720;BME280;5411;58.386;15.560;2023-09-19T02:58:30;98741.31;;;18.62;100.00
10720;BME280;5411;58.386;15.560;2023-09-19T03:01:08;98737.03;;;18.56;100.00
10720;BME280;5411;58.386;15.560;2023-09-19T03:03:38;98738.41;;;18.53;100.00
10720;BME280;5411;58.386;15.560;2023-09-19T03:06:09;98737.91;;;18.51;100.00
10720;BME280;5411;58.386;15.560;2023-09-19T03:08:40;98723.34;;;18.47;100.00
10720;BME280;5411;58.386;15.560;2023-09-19T03:11:09;98717.41;;;18.45;100.00
10720;BME280;5411;58.386;15.560;2023-09-19T03:13:38;98709.06;;;18.42;100.00
10720;BME280;5411;58.386;15.560;2023-09-19T03:16:07;98707.75;;;18.39;100.00
10720;BME280;5411;58.386;15.560;2023-09-19T03:18:35;98694.03;;;18.36;100.00
10720;BME280;5411;58.386;15.560;2023-09-19T03:21:04;98690.28;;;18.32;100.00
10720;BME280;5411;58.386;15.560;2023-09-19T03:23:34;98688.75;;;18.26;100.00
10720;BME280;5411;58.386;15.560;2023-09-19T03:26:02;98688.03;;;18.20;100.00
10720;BME280;5411;58.386;15.560;2023-09-19T03:28:33;98689.41;;;18.17;100.00
10720;BME280;5411;58.386;15.560;2023-09-19T03:31:03;98685.16;;;18.11;100.00
10720;BME280;5411;58.386;15.560;2023-09-19T03:33:32;98683.88;;;18.09;100.00
10720;BME280;5411;58.386;15.560;2023-09-19T03:36:04;98688.25;;;18.05;100.00
10720;BME280;5411;58.386;15.560;2023-09-19T03:38:35;98684.22;;;18.02;100.00
10720;BME280;5411;58.386;15.560;2023-09-19T03:41:03;98686.41;;;18.00;100.00
10720;BME280;5411;58.386;15.560;2023-09-19T03:43:32;98680.19;;;18.00;100.00
10720;BME280;5411;58.386;15.560;2023-09-19T03:46:01;98683.69;;;18.00;100.00
10720;BME280;5411;58.386;15.560;2023-09-19T03:48:31;98676.91;;;18.03;100.00
10720;BME280;5411;58.386;15.560;2023-09-19T03:51:00;98678.22;;;18.05;100.00
10720;BME280;5411;58.386;15.560;2023-09-19T03:53:29;98673.63;;;18.06;100.00
10720;BME280;5411;58.386;15.560;2023-09-19T03:55:58;98667.63;;;18.09;100.00
10720;BME280;5411;58.386;15.560;2023-09-19T03:58:28;98669.25;;;18.10;100.00
10720;BME280;5411;58.386;15.560;2023-09-19T04:00:57;98677.25;;;18.15;100.00
10720;BME280;5411;58.386;15.560;2023-09-19T04:03:25;98669.66;;;18.17;100.00
10720;BME280;5411;58.386;15.560;2023-09-19T04:06:02;98665.56;;;18.20;100.00
10720;BME280;5411;58.386;15.560;2023-09-19T04:08:30;98658.75;;;18.22;100.00
10720;BME280;5411;58.386;15.560;2023-09-19T04:11:00;98652.72;;;18.25;100.00
10720;BME280;5411;58.386;15.560;2023-09-19T04:13:28;98655.16;;;18.27;100.00
10720;BME280;5411;58.386;15.560;2023-09-19T04:15:58;98656.75;;;18.28;100.00
10720;BME280;5411;58.386;15.560;2023-09-19T04:18:26;98643.72;;;18.30;100.00
10720;BME280;5411;58.386;15.560;2023-09-19T04:20:57;98639.63;;;18.32;100.00
10720;BME280;5411;58.386;15.560;2023-09-19T04:23:26;98631.72;;;18.36;100.00
10720;BME280;5411;58.386;15.560;2023-09-19T04:25:54;98623.31;;;18.37;100.00
10720;BME280;5411;58.386;15.560;2023-09-19T04:28:25;98622.19;;;18.38;100.00
10720;BME280;5411;58.386;15.560;2023-09-19T04:30:54;98616.78;;;18.38;100.00
10720;BME280;5411;58.386;15.560;2023-09-19T04:33:23;98618.38;;;18.39;100.00
10720;BME280;5411;58.386;15.560;2023-09-19T04:35:54;98614.56;;;18.40;100.00
10720;BME280;5411;58.386;15.560;2023-09-19T04:38:26;98618.88;;;18.41;100.00
10720;BME280;5411;58.386;15.560;2023-09-19T04:40:57;98613.19;;;18.43;100.00
10720;BME280;5411;58.386;15.560;2023-09-19T04:43:29;98627.22;;;18.45;100.00
10720;BME280;5411;58.386;15.560;2023-09-19T04:45:57;98624.22;;;18.46;100.00
10720;BME280;5411;58.386;15.560;2023-09-19T04:48:27;98625.56;;;18.49;100.00
10720;BME280;5411;58.386;15.560;2023-09-19T04:50:56;98623.03;;;18.52;100.00
10720;BME280;5411;58.386;15.560;2023-09-19T04:53:29;98619.22;;;18.53;100.00
10720;BME280;5411;58.386;15.560;2023-09-19T04:55:57;98616.22;;;18.55;100.00
10720;BME280;5411;58.386;15.560;2023-09-19T04:58:25;98606.13;;;18.61;100.00
10720;BME280;5411;58.386;15.560;2023-09-19T05:00:55;98595.00;;;18.62;100.00
10720;BME280;5411;58.386;15.560;2023-09-19T05:03:26;98584.16;;;18.62;100.00
10720;BME280;5411;58.386;15.560;2023-09-19T05:05:54;98584.97;;;18.63;100.00
10720;BME280;5411;58.386;15.560;2023-09-19T05:08:22;98564.41;;;18.62;100.00
10720;BME280;5411;58.386;15.560;2023-09-19T05:10:52;98564.41;;;18.62;100.00
10720;BME280;5411;58.386;15.560;2023-09-19T05:13:23;98564.41;;;18.62;100.00
10720;BME280;5411;58.386;15.560;2023-09-19T05:15:51;98565.50;;;18.61;100.00
10720;BME280;5411;58.386;15.560;2023-09-19T05:18:21;98563.09;;;18.59;100.00
10720;BME280;5411;58.386;15.560;2023-09-19T05:20:49;98563.09;;;18.59;100.00
10720;BME280;5411;58.386;15.560;2023-09-19T05:23:18;98561.97;;;18.60;100.00
10720;BME280;5411;58.386;15.560;2023-09-19T05:25:48;98569.31;;;18.60;100.00
10720;BME280;5411;58.386;15.560;2023-09-19T05:28:16;98560.38;;;18.59;100.00
10720;BME280;5411;58.386;15.560;2023-09-19T05:30:45;98556.88;;;18.59;100.00
10720;BME280;5411;58.386;15.560;2023-09-19T05:33:15;98561.19;;;18.60;100.00
10720;BME280;5411;58.386;15.560;2023-09-19T05:35:47;98548.44;;;18.60;100.00
10720;BME280;5411;58.386;15.560;2023-09-19T05:38:16;98544.63;;;18.61;100.00
10720;BME280;5411;58.386;15.560;2023-09-19T05:40:47;98544.63;;;18.61;100.00
10720;BME280;5411;58.386;15.560;2023-09-19T05:43:15;98528.88;;;18.63;100.00
10720;BME280;5411;58.386;15.560;2023-09-19T05:45:44;98532.88;;;18.66;100.00
10720;BME280;5411;58.386;15.560;2023-09-19T05:48:14;98533.09;;;18.69;100.00
10720;BME280;5411;58.386;15.560;2023-09-19T05:50:43;98531.38;;;18.73;100.00
10720;BME280;5411;58.386;15.560;2023-09-19T05:53:15;98529.34;;;18.79;100.00
10720;BME280;5411;58.386;15.560;2023-09-19T05:55:45;98542.31;;;18.82;100.00
10720;BME280;5411;58.386;15.560;2023-09-19T05:58:14;98546.03;;;18.86;100.00
10720;BME280;5411;58.386;15.560;2023-09-19T06:00:44;98551.47;;;18.86;100.00
10720;BME280;5411;58.386;15.560;2023-09-19T06:03:16;98535.19;;;18.86;100.00
10720;BME280;5411;58.386;15.560;2023-09-19T06:05:48;98545.44;;;18.89;100.00
10720;BME280;5411;58.386;15.560;2023-09-19T06:08:19;98542.91;;;18.93;100.00
10720;BME280;5411;58.386;15.560;2023-09-19T06:10:48;98530.38;;;18.97;100.00
10720;BME280;5411;58.386;15.560;2023-09-19T06:13:19;98530.56;;;19.00;100.00
10720;BME280;5411;58.386;15.560;2023-09-19T06:15:48;98522.44;;;19.00;100.00
10720;BME280;5411;58.386;15.560;2023-09-19T06:18:16;98523.25;;;19.01;100.00
10720;BME280;5411;58.386;15.560;2023-09-19T06:20:47;98520.53;;;19.01;100.00
10720;BME280;5411;58.386;15.560;2023-09-19T06:23:21;98513.50;;;19.00;100.00
10720;BME280;5411;58.386;15.560;2023-09-19T06:25:52;98515.19;;;18.96;100.00
10720;BME280;5411;58.386;15.560;2023-09-19T06:28:28;98516.31;;;18.95;100.00
10720;BME280;5411;58.386;15.560;2023-09-19T06:30:57;98517.41;;;18.94;100.00
10720;BME280;5411;58.386;15.560;2023-09-19T06:33:26;98512.00;;;18.94;100.00
10720;BME280;5411;58.386;15.560;2023-09-19T06:35:55;98522.75;;;18.99;100.00
10720;BME280;5411;58.386;15.560;2023-09-19T06:38:30;98521.84;;;19.03;100.00
10720;BME280;5411;58.386;15.560;2023-09-19T06:41:01;98522.41;;;19.14;100.00
10720;BME280;5411;58.386;15.560;2023-09-19T06:43:31;98521.88;;;19.26;100.00
10720;BME280;5411;58.386;15.560;2023-09-19T06:46:01;98526.78;;;19.37;100.00
10720;BME280;5411;58.386;15.560;2023-09-19T06:48:29;98516.22;;;19.49;100.00
10720;BME280;5411;58.386;15.560;2023-09-19T06:51:00;98524.91;;;19.60;100.00
10720;BME280;5411;58.386;15.560;2023-09-19T06:53:35;98517.16;;;19.67;100.00
10720;BME280;5411;58.386;15.560;2023-09-19T06:56:04;98516.38;;;19.67;100.00
10720;BME280;5411;58.386;15.560;2023-09-19T06:58:33;98518.88;;;19.63;100.00
10720;BME280;5411;58.386;15.560;2023-09-19T07:01:03;98507.53;;;19.61;100.00
10720;BME280;5411;58.386;15.560;2023-09-19T07:03:32;98515.47;;;19.57;100.00
10720;BME280;5411;58.386;15.560;2023-09-19T07:06:00;98511.34;;;19.60;100.00
10720;BME280;5411;58.386;15.560;2023-09-19T07:08:33;98506.72;;;19.61;100.00
10720;BME280;5411;58.386;15.560;2023-09-19T07:11:01;98504.50;;;19.63;100.00
10720;BME280;5411;58.386;15.560;2023-09-19T07:13:33;98507.22;;;19.63;100.00
10720;BME280;5411;58.386;15.560;2023-09-19T07:16:02;98513.75;;;19.62;100.00
10720;BME280;5411;58.386;15.560;2023-09-19T07:18:30;98509.94;;;19.63;100.00
10720;BME280;5411;58.386;15.560;2023-09-19T07:20:58;98520.50;;;19.64;100.00
10720;BME280;5411;58.386;15.560;2023-09-19T07:23:33;98514.75;;;19.66;100.00
10720;BME280;5411;58.386;15.560;2023-09-19T07:26:02;98513.66;;;19.67;100.00
10720;BME280;5411;58.386;15.560;2023-09-19T07:28:32;98506.00;;;19.69;100.00
10720;BME280;5411;58.386;15.560;2023-09-19T07:31:02;98510.50;;;19.73;100.00
10720;BME280;5411;58.386;15.560;2023-09-19T07:33:34;98506.38;;;19.76;100.00
10720;BME280;5411;58.386;15.560;2023-09-19T07:36:03;98514.19;;;19.77;100.00
10720;BME280;5411;58.386;15.560;2023-09-19T07:38:33;98504.03;;;19.83;100.00
10720;BME280;5411;58.386;15.560;2023-09-19T07:41:02;98497.97;;;19.86;100.00
10720;BME280;5411;58.386;15.560;2023-09-19T07:43:32;98502.78;;;19.89;100.00
10720;BME280;5411;58.386;15.560;2023-09-19T07:46:03;98501.56;;;19.95;100.00
10720;BME280;5411;58.386;15.560;2023-09-19T07:48:34;98506.84;;;20.00;100.00
10720;BME280;5411;58.386;15.560;2023-09-19T07:51:03;98498.81;;;20.17;100.00
10720;BME280;5411;58.386;15.560;2023-09-19T07:53:33;98494.00;;;20.14;100.00
10720;BME280;5411;58.386;15.560;2023-09-19T07:56:03;98506.03;;;20.00;100.00
10720;BME280;5411;58.386;15.560;2023-09-19T07:58:30;98507.72;;;19.87;100.00
10720;BME280;5411;58.386;15.560;2023-09-19T08:01:04;98528.28;;;19.79;100.00
10720;BME280;5411;58.386;15.560;2023-09-19T08:03:33;98530.28;;;19.74;100.00
10720;BME280;5411;58.386;15.560;2023-09-19T08:06:06;98527.81;;;19.64;100.00
10720;BME280;5411;58.386;15.560;2023-09-19T08:08:40;98536.41;;;19.57;100.00
10720;BME280;5411;58.386;15.560;2023-09-19T08:11:09;98532.69;;;19.53;100.00
10720;BME280;5411;58.386;15.560;2023-09-19T08:13:39;98536.50;;;19.52;100.00
10720;BME280;5411;58.386;15.560;2023-09-19T08:16:12;98537.38;;;19.47;100.00
10720;BME280;5411;58.386;15.560;2023-09-19T08:18:42;98536.53;;;19.38;100.00
10720;BME280;5411;58.386;15.560;2023-09-19T08:21:11;98541.25;;;19.33;100.00
10720;BME280;5411;58.386;15.560;2023-09-19T08:23:45;98541.94;;;19.38;100.00
10720;BME280;5411;58.386;15.560;2023-09-19T08:26:14;98543.91;;;19.60;98.83
10720;BME280;5411;58.386;15.560;2023-09-19T08:28:52;98530.53;;;19.64;98.28
10720;BME280;5411;58.386;15.560;2023-09-19T08:31:20;98534.75;;;19.70;93.74
10720;BME280;5411;58.386;15.560;2023-09-19T08:33:50;98527.22;;;19.67;95.29
10720;BME280;5411;58.386;15.560;2023-09-19T08:36:20;98542.44;;;19.76;96.06
10720;BME280;5411;58.386;15.560;2023-09-19T08:38:50;98550.50;;;19.81;94.07
10720;BME280;5411;58.386;15.560;2023-09-19T08:41:20;98566.56;;;19.78;92.65
10720;BME280;5411;58.386;15.560;2023-09-19T08:43:48;98556.53;;;19.78;92.04
10720;BME280;5411;58.386;15.560;2023-09-19T08:46:25;98572.63;;;19.75;91.69
10720;BME280;5411;58.386;15.560;2023-09-19T08:49:03;98572.75;;;19.70;90.31
10720;BME280;5411;58.386;15.560;2023-09-19T08:51:39;98577.47;;;19.64;92.92
10720;BME280;5411;58.386;15.560;2023-09-19T08:54:20;98559.59;;;19.63;90.62
10720;BME280;5411;58.386;15.560;2023-09-19T08:56:50;98557.56;;;19.69;94.07
10720;BME280;5411;58.386;15.560;2023-09-19T08:59:21;98540.66;;;19.72;92.94
10720;BME280;5411;58.386;15.560;2023-09-19T09:01:57;98555.72;;;19.78;93.69
10720;BME280;5411;58.386;15.560;2023-09-19T09:04:29;98547.63;;;19.86;93.34
10720;BME280;5411;58.386;15.560;2023-09-19T09:07:00;98549.06;;;19.84;89.43
10720;BME280;5411;58.386;15.560;2023-09-19T09:09:37;98546.97;;;19.81;87.95
10720;BME280;5411;58.386;15.560;2023-09-19T09:12:11;98561.66;;;19.80;87.94
10720;BME280;5411;58.386;15.560;2023-09-19T09:14:40;98560.66;;;19.76;88.49
10720;BME280;5411;58.386;15.560;2023-09-19T09:17:13;98565.88;;;19.72;87.48
10720;BME280;5411;58.386;15.560;2023-09-19T09:19:42;98557.28;;;19.70;88.26
10720;BME280;5411;58.386;15.560;2023-09-19T09:22:11;98560.44;;;19.72;85.58
10720;BME280;5411;58.386;15.560;2023-09-19T09:24:52;98565.00;;;19.63;86.52
10720;BME280;5411;58.386;15.560;2023-09-19T09:27:24;98557.56;;;19.69;85.61
10720;BME280;5411;58.386;15.560;2023-09-19T09:29:53;98567.00;;;19.71;85.93
10720;BME280;5411;58.386;15.560;2023-09-19T09:32:24;98556.56;;;19.65;82.33
10720;BME280;5411;58.386;15.560;2023-09-19T09:34:54;98567.00;;;19.71;83.50
10720;BME280;5411;58.386;15.560;2023-09-19T09:37:28;98554.34;;;19.67;80.58
10720;BME280;5411;58.386;15.560;2023-09-19T09:40:00;98565.75;;;19.55;81.05
10720;BME280;5411;58.386;15.560;2023-09-19T09:42:48;98560.03;;;19.43;82.28
10720;BME280;5411;58.386;15.560;2023-09-19T09:45:25;98559.66;;;19.22;83.37
10720;BME280;5411;58.386;15.560;2023-09-19T09:48:05;98560.97;;;19.25;84.55
10720;BME280;5411;58.386;15.560;2023-09-19T09:50:47;98562.09;;;19.46;86.41
10720;BME280;5411;58.386;15.560;2023-09-19T09:53:23;98566.41;;;19.61;84.13
10720;BME280;5411;58.386;15.560;2023-09-19T09:56:01;98571.56;;;19.84;84.33
10720;BME280;5411;58.386;15.560;2023-09-19T09:58:33;98573.81;;;20.05;79.92
10720;BME280;5411;58.386;15.560;2023-09-19T10:01:03;98575.09;;;20.29;77.84
10720;BME280;5411;58.386;15.560;2023-09-19T10:03:38;98579.97;;;20.41;77.72
10720;BME280;5411;58.386;15.560;2023-09-19T10:06:10;98581.50;;;20.56;75.73
10720;BME280;5411;58.386;15.560;2023-09-19T10:09:00;98582.47;;;20.60;73.69
10720;BME280;5411;58.386;15.560;2023-09-19T10:11:42;98588.09;;;20.63;72.47
10720;BME280;5411;58.386;15.560;2023-09-19T10:14:12;98594.47;;;20.59;70.97
10720;BME280;5411;58.386;15.560;2023-09-19T10:16:45;98604.41;;;20.63;68.93
10720;BME280;5411;58.386;15.560;2023-09-19T10:19:20;98605.38;;;20.68;66.33
10720;BME280;5411;58.386;15.560;2023-09-19T10:21:54;98612.38;;;20.60;65.84
10720;BME280;5411;58.386;15.560;2023-09-19T10:24:25;98602.47;;;20.64;65.11
10720;BME280;5411;58.386;15.560;2023-09-19T10:26:57;98602.44;;;20.55;65.36
10720;BME280;5411;58.386;15.560;2023-09-19T10:29:39;98605.22;;;20.42;66.64
10720;BME280;5411;58.386;15.560;2023-09-19T10:32:07;98603.50;;;20.23;67.91
10720;BME280;5411;58.386;15.560;2023-09-19T10:34:36;98613.63;;;20.09;68.53
10720;BME280;5411;58.386;15.560;2023-09-19T10:37:11;98618.38;;;20.04;69.77
10720;BME280;5411;58.386;15.560;2023-09-19T10:39:40;98616.75;;;20.03;69.10
10720;BME280;5411;58.386;15.560;2023-09-19T10:42:14;98606.69;;;20.03;68.73
10720;BME280;5411;58.386;15.560;2023-09-19T10:44:45;98608.50;;;20.08;69.90
10720;BME280;5411;58.386;15.560;2023-09-19T10:47:14;98596.69;;;20.12;64.48
10720;BME280;5411;58.386;15.560;2023-09-19T10:49:46;98606.06;;;20.28;63.37
10720;BME280;5411;58.386;15.560;2023-09-19T10:52:18;98600.03;;;20.32;63.12
10720;BME280;5411;58.386;15.560;2023-09-19T10:54:52;98600.44;;;20.25;62.03
10720;BME280;5411;58.386;15.560;2023-09-19T10:57:25;98610.34;;;20.21;62.17
10720;BME280;5411;58.386;15.560;2023-09-19T11:00:02;98603.31;;;20.20;61.41
10720;BME280;5411;58.386;15.560;2023-09-19T11:03:18;98595.28;;;20.15;62.18
10720;BME280;5411;58.386;15.560;2023-09-19T11:06:07;98592.63;;;20.23;59.46
10720;BME280;5411;58.386;15.560;2023-09-19T11:08:56;98583.44;;;20.33;56.85
10720;BME280;5411;58.386;15.560;2023-09-19T11:11:46;98595.03;;;20.47;56.96
10720;BME280;5411;58.386;15.560;2023-09-19T11:14:37;98600.69;;;20.59;56.38
10720;BME280;5411;58.386;15.560;2023-09-19T11:17:33;98613.91;;;20.52;55.76
10720;BME280;5411;58.386;15.560;2023-09-19T11:20:22;98642.81;;;20.26;nan
10720;BME280;5411;58.386;15.560;2023-09-19T11:23:23;98628.91;;;19.83;67.29
10720;BME280;5411;58.386;15.560;2023-09-19T11:25:55;98618.91;;;19.42;67.07
10720;BME280;5411;58.386;15.560;2023-09-19T11:28:33;98619.44;;;19.17;67.29
10720;BME280;5411;58.386;15.560;2023-09-19T11:34:47;98637.41;;;18.99;66.89
10720;BME280;5411;58.386;15.560;2023-09-19T11:40:37;98661.88;;;18.94;63.07
10720;BME280;5411;58.386;15.560;2023-09-19T11:43:33;98652.25;;;18.88;63.79
10720;BME280;5411;58.386;15.560;2023-09-19T11:46:06;98662.56;;;18.86;64.67
10720;BME280;5411;58.386;15.560;2023-09-19T11:48:41;98653.44;;;18.82;63.29
10720;BME280;5411;58.386;15.560;2023-09-19T11:51:14;98654.03;;;18.79;63.03
10720;BME280;5411;58.386;15.560;2023-09-19T11:53:55;98645.78;;;18.70;63.04
10720;BME280;5411;58.386;15.560;2023-09-19T11:56:27;98658.13;;;18.63;61.06
10720;BME280;5411;58.386;15.560;2023-09-19T11:58:58;98661.41;;;18.60;62.83
10720;BME280;5411;58.386;15.560;2023-09-19T12:01:30;98653.34;;;18.55;60.49
10720;BME280;5411;58.386;15.560;2023-09-19T12:04:01;98652.94;;;18.47;59.83
10720;BME280;5411;58.386;15.560;2023-09-19T12:06:33;98655.72;;;18.42;60.60
10720;BME280;5411;58.386;15.560;2023-09-19T12:09:03;98645.38;;;18.44;60.64
10720;BME280;5411;58.386;15.560;2023-09-19T12:11:41;98651.31;;;18.46;58.65
10720;BME280;5411;58.386;15.560;2023-09-19T12:14:11;98642.38;;;18.46;59.43
10720;BME280;5411;58.386;15.560;2023-09-19T12:16:40;98651.31;;;18.46;59.24
10720;BME280;5411;58.386;15.560;2023-09-19T12:19:19;98642.59;;;18.49;60.03
10720;BME280;5411;58.386;15.560;2023-09-19T12:22:09;98647.34;;;18.58;60.22
10720;BME280;5411;58.386;15.560;2023-09-19T12:24:37;98645.28;;;18.68;60.42
10720;BME280;5411;58.386;15.560;2023-09-19T12:27:09;98645.50;;;18.85;60.89
10720;BME280;5411;58.386;15.560;2023-09-19T12:29:45;98643.13;;;18.98;60.57
10720;BME280;5411;58.386;15.560;2023-09-19T12:32:16;98644.00;;;19.07;60.53
10720;BME280;5411;58.386;15.560;2023-09-19T12:34:53;98625.44;;;19.14;62.64
10720;BME280;5411;58.386;15.560;2023-09-19T12:37:23;98630.16;;;19.22;60.83
10720;BME280;5411;58.386;15.560;2023-09-19T12:40:04;98627.34;;;19.27;59.25
10720;BME280;5411;58.386;15.560;2023-09-19T12:42:42;98633.75;;;19.31;59.06
10720;BME280;5411;58.386;15.560;2023-09-19T12:45:11;98631.69;;;19.28;59.49
10720;BME280;5411;58.386;15.560;2023-09-19T12:50:59;98627.06;;;19.29;61.82
10720;BME280;5411;58.386;15.560;2023-09-19T12:53:30;98615.41;;;19.14;61.43
10720;BME280;5411;58.386;15.560;2023-09-19T12:56:00;98634.59;;;18.91;61.42
10720;BME280;5411;58.386;15.560;2023-09-19T12:58:32;98621.69;;;18.69;61.69
10720;BME280;5411;58.386;15.560;2023-09-19T13:01:02;98636.50;;;18.58;62.14
10720;BME280;5411;58.386;15.560;2023-09-19T13:03:41;98633.38;;;18.50;63.28
10720;BME280;5411;58.386;15.560;2023-09-19T13:06:10;98651.09;;;18.43;64.54
10720;BME280;5411;58.386;15.560;2023-09-19T13:08:41;98665.16;;;18.26;65.22
10720;BME280;5411;58.386;15.560;2023-09-19T13:11:12;98695.78;;;18.08;68.97
10720;BME280;5411;58.386;15.560;2023-09-19T13:13:42;98697.25;;;17.82;72.53
10720;BME280;5411;58.386;15.560;2023-09-19T13:16:16;98705.34;;;17.58;76.82
10720;BME280;5411;58.386;15.560;2023-09-19T13:18:50;98699.53;;;17.45;79.80
10720;BME280;5411;58.386;15.560;2023-09-19T13:21:28;98703.63;;;17.19;78.24
10720;BME280;5411;58.386;15.560;2023-09-19T13:24:19;98703.03;;;16.98;80.43
10720;BME280;5411;58.386;15.560;2023-09-19T13:26:48;98697.75;;;16.88;80.46
10720;BME280;5411;58.386;15.560;2023-09-19T13:29:19;98698.59;;;16.84;79.62